createdAt,value
2022-08-12T00:01:26.958Z,19.94
2022-08-12T00:05:09.342Z,19.79
2022-08-12T00:08:36.972Z,19.81
2022-08-12T00:12:01.390Z,19.79
2022-08-12T00:15:26.243Z,19.82
2022-08-12T00:18:49.749Z,19.83
2022-08-12T00:22:13.891Z,19.80
2022-08-12T00:25:55.850Z,19.78
2022-08-12T00:29:19.872Z,19.77
2022-08-12T00:32:44.379Z,19.65
2022-08-12T00:36:36.166Z,19.70
2022-08-12T00:40:01.310Z,19.67
2022-08-12T00:43:17.348Z,19.62
2022-08-12T00:46:36.513Z,19.54
2022-08-12T00:49:43.031Z,19.42
2022-08-12T00:52:55.343Z,19.44
2022-08-12T00:56:06.422Z,19.38
2022-08-12T00:59:12.418Z,19.26
2022-08-12T01:02:25.061Z,19.28
2022-08-12T01:06:00.839Z,19.19
2022-08-12T01:09:25.392Z,19.18
2022-08-12T01:12:32.317Z,19.17
2022-08-12T01:15:37.546Z,19.16
2022-08-12T01:18:43.411Z,19.07
2022-08-12T01:22:26.828Z,19.06
2022-08-12T01:25:55.508Z,19.10
2022-08-12T01:29:03.251Z,19.18
2022-08-12T01:32:11.803Z,19.11
2022-08-12T01:35:18.912Z,19.03
2022-08-12T01:38:30.002Z,18.98
2022-08-12T01:41:41.109Z,18.95
2022-08-12T01:44:47.098Z,18.99
2022-08-12T01:48:16.448Z,18.97
2022-08-12T01:52:15.198Z,18.82
2022-08-12T01:55:07.567Z,18.90
2022-08-12T01:58:29.203Z,18.85
2022-08-12T02:01:39.678Z,18.74
2022-08-12T02:05:33.109Z,18.67
2022-08-12T02:09:05.142Z,18.77
2022-08-12T02:12:27.660Z,18.69
2022-08-12T02:15:46.265Z,18.65
2022-08-12T02:18:59.589Z,18.68
2022-08-12T02:22:21.199Z,18.66
2022-08-12T02:25:31.134Z,18.67
2022-08-12T02:28:38.175Z,18.68
2022-08-12T02:31:46.558Z,18.67
2022-08-12T02:34:52.182Z,18.66
2022-08-12T02:37:59.609Z,18.60
2022-08-12T02:41:07.114Z,18.65
2022-08-12T02:44:17.511Z,18.64
2022-08-12T02:47:59.770Z,18.61
2022-08-12T02:50:54.293Z,18.57
2022-08-12T02:54:05.732Z,18.49
2022-08-12T02:57:14.434Z,18.50
2022-08-12T03:00:19.725Z,18.51
2022-08-12T03:03:31.146Z,18.50
2022-08-12T03:06:43.518Z,18.44
2022-08-12T03:10:03.807Z,18.43
2022-08-12T03:13:13.003Z,18.39
2022-08-12T03:16:19.573Z,18.33
2022-08-12T03:19:26.395Z,18.41
2022-08-12T03:22:32.822Z,18.28
2022-08-12T03:25:40.810Z,18.34
2022-08-12T03:28:54.016Z,18.38
2022-08-12T03:32:00.967Z,18.29
2022-08-12T03:35:09.335Z,18.31
2022-08-12T03:38:38.635Z,18.26
2022-08-12T03:41:54.029Z,18.29
2022-08-12T03:45:33.084Z,18.30
2022-08-12T03:48:55.730Z,18.30
2022-08-12T03:52:19.886Z,18.21
2022-08-12T03:55:42.439Z,18.26
2022-08-12T03:59:05.517Z,18.22
2022-08-12T04:02:16.028Z,18.30
2022-08-12T04:05:22.884Z,18.31
2022-08-12T04:08:30.186Z,18.32
2022-08-12T04:11:58.526Z,18.35
2022-08-12T04:15:04.268Z,18.42
2022-08-12T04:18:13.507Z,18.34
2022-08-12T04:21:18.761Z,18.43
2022-08-12T04:24:28.006Z,18.48
2022-08-12T04:27:33.450Z,18.42
2022-08-12T04:30:40.167Z,18.49
2022-08-12T04:33:45.651Z,18.54
2022-08-12T04:36:51.715Z,18.42
2022-08-12T04:40:00.286Z,18.56
2022-08-12T04:43:07.057Z,18.60
2022-08-12T04:46:34.501Z,18.53
2022-08-12T04:49:41.791Z,18.61
2022-08-12T04:52:47.313Z,18.65
2022-08-12T04:55:53.890Z,18.67
2022-08-12T04:59:00.306Z,18.69
2022-08-12T05:02:06.041Z,18.75
2022-08-12T05:05:25.003Z,18.80
2022-08-12T05:08:30.882Z,18.86
2022-08-12T05:11:37.976Z,18.92
2022-08-12T05:14:59.361Z,18.92
2022-08-12T05:18:16.772Z,18.99
2022-08-12T05:21:25.624Z,18.98
2022-08-12T05:24:30.864Z,19.01
2022-08-12T05:27:37.415Z,19.08
2022-08-12T05:30:43.433Z,19.10
2022-08-12T05:33:48.647Z,19.14
2022-08-12T05:36:54.211Z,19.11
2022-08-12T05:39:59.918Z,19.19
2022-08-12T05:43:07.015Z,19.26
2022-08-12T05:46:12.485Z,19.28
2022-08-12T05:49:18.240Z,19.29
2022-08-12T05:52:23.424Z,19.32
2022-08-12T05:55:31.314Z,19.41
2022-08-12T05:58:38.027Z,19.44
2022-08-12T06:02:10.973Z,19.48
2022-08-12T06:05:10.631Z,19.49
2022-08-12T06:08:18.088Z,19.56
2022-08-12T06:11:24.602Z,19.60
2022-08-12T06:14:36.926Z,19.74
2022-08-12T06:17:42.975Z,19.81
2022-08-12T06:20:49.692Z,19.97
2022-08-12T06:23:58.857Z,20.15
2022-08-12T06:27:03.958Z,20.37
2022-08-12T06:30:18.557Z,20.50
2022-08-12T06:33:57.631Z,20.67
2022-08-12T06:36:55.356Z,20.86
2022-08-12T06:40:03.911Z,20.95
2022-08-12T06:43:08.851Z,21.06
2022-08-12T06:46:15.574Z,21.15
2022-08-12T06:49:20.971Z,21.25
2022-08-12T06:52:26.301Z,21.40
2022-08-12T06:55:31.660Z,21.48
2022-08-12T06:58:38.919Z,21.56
2022-08-12T07:01:51.301Z,21.58
2022-08-12T07:04:57.510Z,21.62
2022-08-12T07:08:10.459Z,21.82
2022-08-12T07:11:16.301Z,21.83
2022-08-12T07:14:21.675Z,21.90
2022-08-12T07:17:35.880Z,21.85
2022-08-12T07:20:52.565Z,22.04
2022-08-12T07:23:58.500Z,22.19
2022-08-12T07:27:03.602Z,22.26
2022-08-12T07:30:11.259Z,22.37
2022-08-12T07:33:20.209Z,22.37
2022-08-12T07:36:25.566Z,22.50
2022-08-12T07:39:31.195Z,22.47
2022-08-12T07:42:37.131Z,22.53
2022-08-12T07:45:42.643Z,22.65
2022-08-12T07:48:53.742Z,22.57
2022-08-12T07:52:00.464Z,22.61
2022-08-12T07:55:06.942Z,22.62
2022-08-12T07:58:15.700Z,22.64
2022-08-12T08:01:22.892Z,22.67
2022-08-12T08:04:46.766Z,22.66
2022-08-12T08:07:53.395Z,22.62
2022-08-12T08:11:15.450Z,22.60
2022-08-12T08:14:21.236Z,22.60
2022-08-12T08:17:26.990Z,22.67
2022-08-12T08:20:37.980Z,22.68
2022-08-12T08:24:05.059Z,22.74
2022-08-12T08:27:11.032Z,22.74
2022-08-12T08:30:17.560Z,22.72
2022-08-12T08:34:05.227Z,22.71
2022-08-12T08:36:50.650Z,22.74
2022-08-12T08:40:16.907Z,22.74
2022-08-12T08:43:21.042Z,22.77
2022-08-12T08:46:26.442Z,22.76
2022-08-12T08:49:32.180Z,22.76
2022-08-12T08:52:41.802Z,22.80
2022-08-12T08:56:04.726Z,22.83
2022-08-12T08:59:11.356Z,22.84
2022-08-12T09:02:16.476Z,22.81
2022-08-12T09:05:25.518Z,22.88
2022-08-12T09:08:32.258Z,22.92
2022-08-12T09:12:10.627Z,23.05
2022-08-12T09:15:19.230Z,23.10
2022-08-12T09:18:33.430Z,23.06
2022-08-12T09:21:54.656Z,23.10
2022-08-12T09:25:06.271Z,23.10
2022-08-12T09:28:13.820Z,23.10
2022-08-12T09:32:06.379Z,23.15
2022-08-12T09:34:50.516Z,23.10
2022-08-12T09:37:58.766Z,23.33
2022-08-12T09:42:34.424Z,23.40
2022-08-12T09:44:48.735Z,23.38
2022-08-12T09:48:22.314Z,23.52
2022-08-12T09:51:37.341Z,23.59
2022-08-12T09:54:43.445Z,23.58
2022-08-12T09:58:46.418Z,23.58
2022-08-12T10:01:23.258Z,23.60
2022-08-12T10:04:30.233Z,23.70
2022-08-12T10:07:39.450Z,23.81
2022-08-12T10:11:04.450Z,23.78
2022-08-12T10:14:13.064Z,23.83
2022-08-12T10:17:24.214Z,23.85
2022-08-12T10:20:29.895Z,23.89
2022-08-12T10:23:41.054Z,23.91
2022-08-12T10:27:08.959Z,23.98
2022-08-12T10:30:41.783Z,24.07
2022-08-12T10:34:06.183Z,24.10
2022-08-12T10:38:13.200Z,24.26
2022-08-12T10:40:59.237Z,24.47
2022-08-12T10:44:05.287Z,24.52
2022-08-12T10:48:01.571Z,24.60
2022-08-12T10:51:02.263Z,24.58
2022-08-12T10:54:03.071Z,24.75
2022-08-12T10:57:08.512Z,24.85
2022-08-12T11:00:31.587Z,24.91
2022-08-12T11:04:36.029Z,24.87
2022-08-12T11:08:36.554Z,24.87
2022-08-12T11:10:34.179Z,24.96
2022-08-12T11:13:46.800Z,25.08
2022-08-12T11:17:34.115Z,25.11
2022-08-12T11:20:30.603Z,25.11
2022-08-12T11:23:37.640Z,25.15
2022-08-12T11:26:43.165Z,25.29
2022-08-12T11:30:05.601Z,25.31
2022-08-12T11:33:24.329Z,25.31
2022-08-12T11:36:40.713Z,25.36
2022-08-12T11:43:20.083Z,25.58
2022-08-12T11:46:25.599Z,25.57
2022-08-12T11:49:32.772Z,25.65
2022-08-12T11:52:56.601Z,25.65
2022-08-12T11:56:02.781Z,25.78
2022-08-12T12:02:33.368Z,25.94
2022-08-12T12:05:41.625Z,26.09
2022-08-12T12:08:52.862Z,25.97
2022-08-12T12:12:00.865Z,26.06
2022-08-12T12:15:09.698Z,26.11
2022-08-12T12:18:30.724Z,26.10
2022-08-12T12:21:48.681Z,26.29
2022-08-12T12:24:55.905Z,26.31
2022-08-12T12:28:04.775Z,26.39
2022-08-12T12:31:15.247Z,26.40
2022-08-12T12:34:37.097Z,26.41
2022-08-12T12:38:03.917Z,26.50
2022-08-12T12:41:14.294Z,26.50
2022-08-12T12:44:25.893Z,26.57
2022-08-12T12:48:07.833Z,26.69
2022-08-12T12:51:49.525Z,26.72
2022-08-12T12:54:53.016Z,26.73
2022-08-12T12:58:01.308Z,26.82
2022-08-12T13:01:25.612Z,26.84
2022-08-12T13:04:35.089Z,26.85
2022-08-12T13:07:54.725Z,26.86
2022-08-12T13:11:03.200Z,26.95
2022-08-12T13:14:28.223Z,26.98
2022-08-12T13:18:02.556Z,27.34
2022-08-12T13:21:02.518Z,28.23
2022-08-12T13:24:09.801Z,28.06
2022-08-12T13:27:16.326Z,27.49
2022-08-12T13:30:26.130Z,27.45
2022-08-12T13:34:32.261Z,27.42
2022-08-12T13:36:58.193Z,27.37
2022-08-12T13:40:03.346Z,27.36
2022-08-12T13:43:08.878Z,27.43
2022-08-12T13:46:20.271Z,27.38
2022-08-12T13:49:55.269Z,27.42
2022-08-12T13:52:50.493Z,27.31
2022-08-12T13:55:59.848Z,27.43
2022-08-12T13:59:08.964Z,27.45
2022-08-12T14:02:15.910Z,27.46
2022-08-12T14:05:31.269Z,27.44
2022-08-12T14:08:43.990Z,27.49
2022-08-12T14:11:58.790Z,27.51
2022-08-12T14:15:07.297Z,27.34
2022-08-12T14:18:18.440Z,27.43
2022-08-12T14:21:23.713Z,27.44
2022-08-12T14:24:40.739Z,27.38
2022-08-12T14:28:03.228Z,27.41
2022-08-12T14:31:18.112Z,27.44
2022-08-12T14:34:28.350Z,27.42
2022-08-12T14:37:55.936Z,27.44
2022-08-12T14:41:01.571Z,27.45
2022-08-12T14:44:59.706Z,27.40
2022-08-12T14:47:34.951Z,27.35
2022-08-12T14:51:09.821Z,27.52
2022-08-12T14:57:56.548Z,27.46
2022-08-12T15:01:21.178Z,27.26
2022-08-12T15:04:29.187Z,27.35
2022-08-12T15:07:49.553Z,27.31
2022-08-12T15:10:57.843Z,27.26
2022-08-12T15:14:06.001Z,26.71
2022-08-12T15:17:12.520Z,26.56
2022-08-12T15:20:39.703Z,26.23
2022-08-12T15:23:55.504Z,26.09
2022-08-12T15:27:02.747Z,25.87
2022-08-12T15:30:14.006Z,25.73
2022-08-12T15:33:24.231Z,25.64
2022-08-12T15:36:53.761Z,25.41
2022-08-12T15:40:00.984Z,25.43
2022-08-12T15:43:08.410Z,25.25
2022-08-12T15:46:15.094Z,25.08
2022-08-12T15:49:21.117Z,24.79
2022-08-12T15:52:30.111Z,24.71
2022-08-12T15:55:45.820Z,24.61
2022-08-12T15:58:51.234Z,24.36
2022-08-12T16:01:58.425Z,24.37
2022-08-12T16:06:10.985Z,24.27
2022-08-12T16:08:36.593Z,24.15
2022-08-12T16:11:44.193Z,24.07
2022-08-12T16:14:49.387Z,24.02
2022-08-12T16:18:19.326Z,24.07
2022-08-12T16:21:50.250Z,23.80
2022-08-12T16:24:47.967Z,23.97
2022-08-12T16:28:02.855Z,23.92
2022-08-12T16:31:09.792Z,23.93
2022-08-12T16:34:39.850Z,23.98
2022-08-12T16:38:27.632Z,23.90
2022-08-12T16:41:08.385Z,23.93
2022-08-12T16:44:19.579Z,23.89
2022-08-12T16:47:27.270Z,23.80
2022-08-12T16:50:33.023Z,23.63
2022-08-12T16:53:44.699Z,23.60
2022-08-12T16:56:55.623Z,23.48
2022-08-12T17:00:06.230Z,23.46
2022-08-12T17:03:29.020Z,23.40
2022-08-12T17:06:35.730Z,23.36
2022-08-12T17:09:46.833Z,23.22
2022-08-12T17:12:52.198Z,23.22
2022-08-12T17:16:05.790Z,23.14
2022-08-12T17:19:12.044Z,23.09
2022-08-12T17:22:21.784Z,23.01
2022-08-12T17:25:27.404Z,23.00
2022-08-12T17:28:35.506Z,22.90
2022-08-12T17:32:00.915Z,22.83
2022-08-12T17:35:29.805Z,22.77
2022-08-12T17:38:41.791Z,22.67
2022-08-12T17:41:56.659Z,22.76
2022-08-12T17:45:17.415Z,22.78
2022-08-12T17:48:34.651Z,22.78
2022-08-12T17:51:50.454Z,22.55
2022-08-12T17:55:40.214Z,22.41
2022-08-12T17:58:36.828Z,22.36
2022-08-12T18:01:45.212Z,22.29
2022-08-12T18:05:09.545Z,22.30
2022-08-12T18:08:15.894Z,22.14
2022-08-12T18:12:04.562Z,22.08
2022-08-12T18:15:08.955Z,22.12
2022-08-12T18:18:19.630Z,21.91
2022-08-12T18:21:26.445Z,21.93
2022-08-12T18:25:00.814Z,21.73
2022-08-12T18:28:16.601Z,21.73
2022-08-12T18:31:44.489Z,21.65
2022-08-12T18:35:10.249Z,21.55
2022-08-12T18:38:19.298Z,21.51
2022-08-12T18:41:33.481Z,21.50
2022-08-12T18:44:39.715Z,21.54
2022-08-12T18:47:49.871Z,21.48
2022-08-12T18:51:04.661Z,21.34
2022-08-12T18:54:12.197Z,21.26
2022-08-12T18:57:45.550Z,21.20
2022-08-12T19:00:52.714Z,21.17
2022-08-12T19:04:06.695Z,21.15
2022-08-12T19:07:19.829Z,21.18
2022-08-12T19:10:27.290Z,21.19
2022-08-12T19:13:49.754Z,21.16
2022-08-12T19:16:56.421Z,21.10
2022-08-12T19:20:04.443Z,21.04
2022-08-12T19:23:16.400Z,20.95
2022-08-12T19:26:28.008Z,20.94
2022-08-12T19:29:43.965Z,20.92
2022-08-12T19:32:49.499Z,20.89
2022-08-12T19:36:07.655Z,20.87
2022-08-12T19:39:25.283Z,20.73
2022-08-12T19:42:41.805Z,20.64
2022-08-12T19:45:50.433Z,20.77
2022-08-12T19:48:58.620Z,20.68
2022-08-12T19:52:12.614Z,20.62
2022-08-12T19:55:27.896Z,20.70
2022-08-12T19:58:34.272Z,20.59
2022-08-12T20:01:41.094Z,20.50
2022-08-12T20:06:03.705Z,20.49
2022-08-12T20:08:34.693Z,20.48
2022-08-12T20:12:11.963Z,20.53
2022-08-12T20:15:11.267Z,20.53
2022-08-12T20:18:43.833Z,20.43
2022-08-12T20:21:43.591Z,20.37
2022-08-12T20:24:51.038Z,20.51
2022-08-12T20:28:04.448Z,20.44
2022-08-12T20:31:14.579Z,20.45
2022-08-12T20:34:22.030Z,20.49
2022-08-12T20:38:06.162Z,20.35
2022-08-12T20:40:53.542Z,20.32
2022-08-12T20:44:00.192Z,20.20
2022-08-12T20:47:18.140Z,19.99
2022-08-12T20:50:27.481Z,20.15
2022-08-12T20:53:58.036Z,20.09
2022-08-12T20:56:58.170Z,19.96
2022-08-12T21:00:22.523Z,19.98
2022-08-12T21:03:52.323Z,20.05
2022-08-12T21:07:09.666Z,19.95
2022-08-12T21:10:15.576Z,19.82
2022-08-12T21:13:22.342Z,19.92
2022-08-12T21:16:35.267Z,19.96
2022-08-12T21:19:51.927Z,19.88
2022-08-12T21:22:58.029Z,19.89
2022-08-12T21:26:03.562Z,19.94
2022-08-12T21:29:12.503Z,19.87
2022-08-12T21:32:37.029Z,19.79
2022-08-12T21:35:50.179Z,19.88
2022-08-12T21:39:01.068Z,19.90
2022-08-12T21:42:08.644Z,19.75
2022-08-12T21:45:47.935Z,19.72
2022-08-12T21:48:40.000Z,19.83
2022-08-12T21:51:50.585Z,19.85
2022-08-12T21:54:56.516Z,19.84
2022-08-12T21:58:11.342Z,19.90
2022-08-12T22:01:22.718Z,19.89
2022-08-12T22:04:51.521Z,19.76
2022-08-12T22:07:58.438Z,19.70
2022-08-12T22:11:03.630Z,19.69
2022-08-12T22:14:10.342Z,19.75
2022-08-12T22:17:50.218Z,19.72
2022-08-12T22:20:59.135Z,19.69
2022-08-12T22:24:09.746Z,19.66
2022-08-12T22:27:52.617Z,19.55
2022-08-12T22:31:10.843Z,19.71
2022-08-12T22:34:18.238Z,19.83
2022-08-12T22:37:24.023Z,19.81
2022-08-12T22:40:30.463Z,19.70
2022-08-12T22:43:59.770Z,19.78
2022-08-12T22:47:53.680Z,19.67
2022-08-12T22:50:50.187Z,19.62
2022-08-12T22:53:56.748Z,19.66
2022-08-12T22:57:12.474Z,19.63
2022-08-12T23:00:24.464Z,19.70
2022-08-12T23:03:48.238Z,19.60
2022-08-12T23:07:05.164Z,19.63
2022-08-12T23:10:12.122Z,19.70
2022-08-12T23:13:43.065Z,19.69
2022-08-12T23:16:52.280Z,19.73
2022-08-12T23:19:57.478Z,19.69
2022-08-12T23:23:09.089Z,19.63
2022-08-12T23:26:14.694Z,19.67
2022-08-12T23:29:29.941Z,19.67
2022-08-12T23:32:54.753Z,19.67
2022-08-12T23:36:06.728Z,19.54
2022-08-12T23:40:15.881Z,19.57
2022-08-12T23:42:44.197Z,19.56
2022-08-12T23:46:01.028Z,19.54
2022-08-12T23:49:55.286Z,19.60
2022-08-12T23:52:34.372Z,19.55
2022-08-12T23:55:42.261Z,19.63
2022-08-12T23:58:52.932Z,19.56
